NAKED ISLAND AK US NWS current weather conditions

sailwx.info

Wind from 180 at 12 knots gusting 15

Air temperature 4.8° C
Dewpoint 2.3° C

Last reported at 2020-Oct-20 11:44 UTC.
Time now 2020-Oct-20 12:04 UTC

Location: N 58°15' W 134°57'.
View on Google Maps.

See reports from other nearby stations

  
Tides and Currents Weather Stations Pressure Air Temp Water Temp Dewpoint Dewpoint Depression Visibility Wind Speed Wind Dir Waves Ship Positions
date/time (UTC)wind fromknots sea level pressurealtimeterstation pressurevisibilityair tempwater tempwave heightnotes
2020-Oct-20 11:44 180 12 gusting 15 4.8
2020-Oct-20 11:34 180 13 gusting 18 4.9
2020-Oct-20 11:24 180 13 gusting 19 4.8
2020-Oct-20 11:14 180 13 gusting 19 4.8
2020-Oct-20 11:04 190 13 gusting 19 4.9
2020-Oct-20 10:54 180 13 gusting 18 4.9
2020-Oct-20 10:44 170 14 gusting 19 4.9
2020-Oct-20 10:34 170 15 gusting 20 4.9
2020-Oct-20 10:24 180 15 gusting 20 4.9
2020-Oct-20 10:14 180 14 gusting 20 5.0
2020-Oct-20 10:04 180 15 gusting 20 5.2
2020-Oct-20 09:54 170 14 gusting 20 5.2
2020-Oct-20 09:44 170 15 gusting 20 5.2
2020-Oct-20 09:34 170 17 gusting 20 5.1
2020-Oct-20 09:24 150 9 gusting 17 4.8
2020-Oct-20 09:14 150 8 gusting 14 4.9
2020-Oct-20 09:04 140 9 gusting 15 4.9
2020-Oct-20 08:54 140 7 gusting 15 4.9
2020-Oct-20 08:44 130 9 gusting 13 5.0
2020-Oct-20 08:34 160 13 gusting 18 5.2
2020-Oct-20 08:24 150 13 gusting 20 5.1
2020-Oct-20 08:14 150 8 gusting 17 4.8
2020-Oct-20 08:04 130 6 gusting 13 4.5
2020-Oct-20 07:54 130 8 gusting 13 4.6
2020-Oct-20 07:44 130 9 gusting 17 4.7
2020-Oct-20 07:34 150 12 gusting 18 4.9
2020-Oct-20 07:24 150 11 gusting 18 4.8
2020-Oct-20 07:14 160 14 gusting 21 5.0
2020-Oct-20 07:04 170 15 gusting 20 5.0
2020-Oct-20 06:54 170 15 gusting 21 5.0
2020-Oct-20 06:44 160 15 gusting 21 5.0
2020-Oct-20 06:34 160 15 gusting 20 5.0
2020-Oct-20 06:24 160 17 gusting 21 5.0
2020-Oct-20 06:14 150 12 gusting 19 4.8
2020-Oct-20 06:04 140 11 gusting 15 4.7
2020-Oct-20 05:54 150 13 gusting 20 4.9
2020-Oct-20 05:44 160 13 gusting 19 4.8
2020-Oct-20 05:34 160 12 gusting 19 4.6
2020-Oct-20 05:24 140 11 gusting 17 4.4
2020-Oct-20 05:14 150 13 gusting 20 4.4
2020-Oct-20 05:04 170 13 gusting 18 4.3
2020-Oct-20 04:54 160 11 gusting 15 4.4
2020-Oct-20 04:44 170 11 gusting 15 4.5
2020-Oct-20 04:34 160 11 gusting 15 4.6
2020-Oct-20 04:24 160 11 gusting 14 4.6
2020-Oct-20 04:14 150 7 gusting 12 4.6
2020-Oct-20 04:04 150 6 gusting 11 4.5
2020-Oct-20 03:54 130 6 gusting 9 4.4
2020-Oct-20 03:44 140 6 gusting 12 4.5
2020-Oct-20 03:34 150 6 gusting 12 4.5
2020-Oct-20 03:24 140 6 gusting 11 4.6
2020-Oct-20 03:14 150 6 gusting 9 4.7
2020-Oct-20 03:04 150 6 gusting 9 4.5
2020-Oct-20 02:54 120 4 gusting 9 4.5
2020-Oct-20 02:44 160 2 gusting 6 4.3
2020-Oct-20 02:34 080 5 gusting 8 4.0
2020-Oct-20 02:24 090 6 gusting 9 3.8
2020-Oct-20 02:14 080 6 gusting 9 3.8
2020-Oct-20 02:04 080 6 gusting 11 3.7
2020-Oct-20 01:54 080 6 gusting 9 3.8
2020-Oct-20 01:44 070 7 gusting 11 3.9
2020-Oct-20 01:34 050 8 gusting 11 4.0
2020-Oct-20 01:24 060 8 gusting 11 4.1
2020-Oct-20 01:14 060 6 gusting 9 4.3
2020-Oct-20 01:04 070 4 gusting 6 4.6
2020-Oct-20 00:54 090 4 gusting 8 4.6
2020-Oct-20 00:44 100 1 gusting 7 4.7
2020-Oct-20 00:34 100 2 gusting 6 4.7
2020-Oct-20 00:24 050 1 gusting 6 4.7
2020-Oct-20 00:14 070 4 gusting 6 4.7
2020-Oct-19 23:54 070 2 gusting 6 4.8
2020-Oct-19 23:44 110 2 gusting 5 4.8
2020-Oct-19 23:34 110 2 gusting 4 4.8
2020-Oct-19 23:24 120 2 gusting 4 4.8
2020-Oct-19 23:14 110 2 gusting 5 4.8
2020-Oct-19 23:04 170 2 gusting 6 4.7
2020-Oct-19 22:54 200 2 gusting 6 4.7
2020-Oct-19 22:44 210 2 gusting 6 4.7
2020-Oct-19 22:34 230 1 gusting 5 4.9
2020-Oct-19 22:24 210 1 gusting 5 4.8
2020-Oct-19 22:14 210 1 gusting 5 4.7
2020-Oct-19 22:04 200 4 gusting 6 4.6
2020-Oct-19 21:54 190 4 gusting 6 4.6
2020-Oct-19 21:44 180 4 gusting 6 4.7
2020-Oct-19 21:34 200 2 gusting 6 4.9
2020-Oct-19 21:24 230 1 gusting 5 5.3
2020-Oct-19 21:14 190 1 gusting 2 5.8
2020-Oct-19 21:04 270 0 gusting 2 5.7
2020-Oct-19 20:54 320 0 gusting 2 5.9
2020-Oct-19 20:44 280 0 gusting 2 6.2
2020-Oct-19 20:34 250 1 gusting 4 5.3
2020-Oct-19 20:24 270 1 gusting 4 5.7
2020-Oct-19 20:14 280 0 gusting 2 5.4
2020-Oct-19 20:04 330 0 gusting 2 5.1
2020-Oct-19 19:54 4.9
2020-Oct-19 19:44 4.5
2020-Oct-19 19:34 010 0 gusting 2 4.3
2020-Oct-19 19:24 040 0 gusting 1 4.0
2020-Oct-19 19:14 020 1 gusting 2 4.0
2020-Oct-19 19:04 3.9
2020-Oct-19 18:54 3.7
2020-Oct-19 18:44 130 1 gusting 2 3.6
2020-Oct-19 18:34 100 0 gusting 2 3.4
2020-Oct-19 18:24 070 1 gusting 2 3.2
2020-Oct-19 18:14 080 2 gusting 5 3.2
2020-Oct-19 18:04 080 2 gusting 5 3.0
2020-Oct-19 17:54 080 4 gusting 6 3.0
2020-Oct-19 17:44 090 4 gusting 6 2.9
2020-Oct-19 17:34 090 5 gusting 6 2.8
2020-Oct-19 17:24 090 5 gusting 6 2.7
2020-Oct-19 17:14 080 5 gusting 6 2.7
2020-Oct-19 17:04 080 5 gusting 6 2.6
2020-Oct-19 16:54 080 5 gusting 6 2.5
2020-Oct-19 16:44 080 5 gusting 6 2.5
2020-Oct-19 16:34 080 5 gusting 6 2.6
2020-Oct-19 16:24 090 4 gusting 6 2.5
2020-Oct-19 16:14 080 2 gusting 5 2.5
2020-Oct-19 16:04 080 2 gusting 5 2.4
2020-Oct-19 15:54 070 2 gusting 5 2.4
2020-Oct-19 15:44 080 2 gusting 5 2.4
2020-Oct-19 15:34 070 2 gusting 4 2.4
2020-Oct-19 15:24 070 1 gusting 5 2.4
2020-Oct-19 15:14 080 1 gusting 2 2.4
2020-Oct-19 15:04 050 1 gusting 4 2.3
2020-Oct-19 14:54 060 2 gusting 5 2.3
2020-Oct-19 14:44 080 4 gusting 6 2.2
2020-Oct-19 14:34 060 6 gusting 6 2.2
2020-Oct-19 14:24 060 6 gusting 7 2.2
2020-Oct-19 14:14 060 6 gusting 8 2.3
2020-Oct-19 14:04 050 5 gusting 7 2.2
2020-Oct-19 13:54 040 5 gusting 7 2.1
2020-Oct-19 13:44 040 5 gusting 7 2.2
2020-Oct-19 13:34 030 5 gusting 8 2.2
2020-Oct-19 13:24 040 5 gusting 8 2.2
2020-Oct-19 13:14 030 4 gusting 7 2.1
2020-Oct-19 13:04 050 4 gusting 6 2.1
2020-Oct-19 12:54 050 5 gusting 7 2.0
2020-Oct-19 12:44 050 5 gusting 8 2.1
2020-Oct-19 12:34 060 6 gusting 7 2.0
2020-Oct-19 12:24 050 6 gusting 9 2.2
2020-Oct-19 12:14 050 6 gusting 9 2.4
2020-Oct-19 12:04 040 5 gusting 7 2.6
2020-Oct-19 11:54 070 6 gusting 8 2.6
2020-Oct-19 11:44 070 6 gusting 12 2.6
2020-Oct-19 11:34 080 7 gusting 12 2.6
2020-Oct-19 11:24 080 6 gusting 8 2.6
2020-Oct-19 11:14 080 7 gusting 12 2.7
2020-Oct-19 11:04 080 7 gusting 11 2.5
2020-Oct-19 10:54 070 7 gusting 11 2.4
2020-Oct-19 10:44 070 8 gusting 13 2.4
2020-Oct-19 10:34 080 7 gusting 12 2.5
2020-Oct-19 10:24 080 7 gusting 12 2.7
2020-Oct-19 08:14 090 6 gusting 8 3.4
2020-Oct-19 08:04 090 6 gusting 8 3.7
2020-Oct-19 07:54 080 6 gusting 7 3.8
2020-Oct-19 07:44 090 6 gusting 7 3.8
2020-Oct-19 07:34 060 6 gusting 9 3.9
2020-Oct-19 07:24 060 6 gusting 8 3.9
2020-Oct-19 07:14 060 5 gusting 8 4.0
2020-Oct-19 07:04 050 6 gusting 9 3.9
2020-Oct-19 06:54 050 7 gusting 11 3.9
2020-Oct-19 06:44 050 6 gusting 9 3.9
2020-Oct-19 06:34 050 6 gusting 8 3.9
2020-Oct-19 06:24 070 6 gusting 8 3.8
2020-Oct-19 06:14 070 6 gusting 8 3.8
2020-Oct-19 06:04 080 6 gusting 7 3.8
2020-Oct-19 05:54 070 5 gusting 7 3.8
2020-Oct-19 05:44 070 4 gusting 6 3.8
2020-Oct-19 05:34 060 4 gusting 6 3.8
2020-Oct-19 05:24 070 1 gusting 5 3.7
2020-Oct-19 05:14 100 1 gusting 2 3.6
2020-Oct-19 05:04 080 2 gusting 5 3.7
2020-Oct-19 04:54 050 2 gusting 5 3.8
2020-Oct-19 04:44 060 2 gusting 6 3.9
2020-Oct-19 04:34 050 4 gusting 6 3.9
2020-Oct-19 04:24 060 4 gusting 6 3.9
2020-Oct-19 04:14 070 6 gusting 8 4.0
2020-Oct-19 04:04 070 6 gusting 8 3.8
2020-Oct-19 03:54 070 6 gusting 8 3.8
2020-Oct-19 03:44 070 6 gusting 9 3.8
2020-Oct-19 03:34 070 5 gusting 6 3.8
2020-Oct-19 03:24 070 6 gusting 7 3.9
2020-Oct-19 03:14 060 6 gusting 8 3.9
2020-Oct-19 03:04 070 5 gusting 6 3.9
2020-Oct-19 02:54 060 6 gusting 7 4.0
2020-Oct-19 02:44 060 6 gusting 8 4.0
2020-Oct-19 02:34 050 7 gusting 9 4.1
2020-Oct-19 02:24 040 8 gusting 12 4.0
2020-Oct-19 02:14 040 8 gusting 12 3.9
2020-Oct-19 02:04 040 8 gusting 11 4.0
2020-Oct-19 01:54 040 9 gusting 12 3.9
2020-Oct-19 01:44 040 11 gusting 13 3.9
2020-Oct-19 01:34 050 11 gusting 13 3.9
2020-Oct-19 01:24 050 9 gusting 13 4.0
2020-Oct-19 01:14 060 7 gusting 9 4.1
2020-Oct-19 01:04 050 9 gusting 13 4.2
2020-Oct-19 00:54 040 8 gusting 12 4.3
2020-Oct-19 00:44 030 9 gusting 12 4.3
2020-Oct-19 00:34 020 9 gusting 13 4.5
2020-Oct-19 00:24 020 9 gusting 13 4.5
2020-Oct-19 00:14 020 11 gusting 15 4.5
2020-Oct-18 23:54 030 11 gusting 13 4.5
2020-Oct-18 23:44 020 9 gusting 13 4.5
2020-Oct-18 23:34 020 11 gusting 14 4.5
2020-Oct-18 23:24 030 11 gusting 15 4.5
2020-Oct-18 23:14 020 9 gusting 14 4.5
2020-Oct-18 23:04 030 9 gusting 14 4.4
2020-Oct-18 22:54 030 9 gusting 13 4.3
2020-Oct-18 22:44 030 9 gusting 13 4.2
2020-Oct-18 22:34 030 9 gusting 13 4.2
2020-Oct-18 22:24 030 9 gusting 17 4.2
2020-Oct-18 22:14 030 11 gusting 15 4.2
2020-Oct-18 22:04 050 9 gusting 13 4.2
2020-Oct-18 21:54 030 8 gusting 13 4.0
2020-Oct-18 21:44 040 8 gusting 13 4.0
2020-Oct-18 21:34 050 9 gusting 14 3.9
2020-Oct-18 21:24 050 11 gusting 18 3.9
2020-Oct-18 21:14 050 9 gusting 13 3.8
2020-Oct-18 21:04 030 11 gusting 17 3.9
2020-Oct-18 20:54 030 9 gusting 14 3.7
2020-Oct-18 20:44 030 9 gusting 13 3.6
2020-Oct-18 20:34 030 9 gusting 13 3.5
2020-Oct-18 20:24 030 8 gusting 13 3.4
2020-Oct-18 20:14 030 11 gusting 14 3.4
2020-Oct-18 20:04 030 12 gusting 17 3.3
2020-Oct-18 19:54 030 13 gusting 17 3.3
2020-Oct-18 19:44 040 14 gusting 20 3.2
2020-Oct-18 19:34 030 14 gusting 20 3.2
2020-Oct-18 19:24 040 13 gusting 19 3.2
2020-Oct-18 19:14 040 13 gusting 19 3.1
2020-Oct-18 19:04 030 13 gusting 19 3.0
2020-Oct-18 18:54 030 13 gusting 18 3.0
2020-Oct-18 18:44 030 13 gusting 19 3.0
2020-Oct-18 18:34 030 12 gusting 15 3.0
2020-Oct-18 18:24 030 13 gusting 20 3.0
2020-Oct-18 18:14 040 13 gusting 20 3.0
2020-Oct-18 18:04 040 15 gusting 21 3.0
2020-Oct-18 17:54 050 15 gusting 20 3.1
2020-Oct-18 17:44 050 14 gusting 20 3.0
2020-Oct-18 17:37 050 15 gusting 20 3.0
2020-Oct-18 17:24 050 17 gusting 24 2.9
2020-Oct-18 17:14 050 19 gusting 26 2.9
2020-Oct-18 17:04 050 19 gusting 26 2.9
2020-Oct-18 16:54 050 20 gusting 27 2.9
2020-Oct-18 16:44 050 19 gusting 29 2.7
2020-Oct-18 16:34 050 20 gusting 27 2.7
2020-Oct-18 16:24 050 20 gusting 28 2.7
2020-Oct-18 16:14 040 20 gusting 27 2.6
2020-Oct-18 16:04 040 20 gusting 27 2.6
2020-Oct-18 15:54 040 19 gusting 26 2.6
2020-Oct-18 15:44 040 19 gusting 26 2.6
2020-Oct-18 15:34 040 19 gusting 25 2.7
2020-Oct-18 15:24 040 20 gusting 27 2.7
2020-Oct-18 15:14 050 18 gusting 24 2.6
2020-Oct-18 15:04 040 20 gusting 26 2.7
2020-Oct-18 14:54 040 19 gusting 26 2.6
2020-Oct-18 14:44 040 18 gusting 26 2.6
2020-Oct-18 14:34 040 19 gusting 26 2.7
2020-Oct-18 14:24 050 18 gusting 26 2.7
2020-Oct-18 14:14 050 20 gusting 27 2.7
2020-Oct-18 14:04 050 19 gusting 27 2.6
2020-Oct-18 13:54 050 20 gusting 26 2.6
2020-Oct-18 13:44 050 20 gusting 27 2.6
2020-Oct-18 13:34 050 19 gusting 27 2.5
2020-Oct-18 13:24 050 20 gusting 27 2.5
2020-Oct-18 13:14 050 20 gusting 27 2.5
2020-Oct-18 13:04 040 19 gusting 26 2.5
2020-Oct-18 12:54 040 18 gusting 24 2.4
2020-Oct-18 12:44 040 17 gusting 24 2.5
2020-Oct-18 12:34 040 15 gusting 21 2.5
2020-Oct-18 12:24 040 17 gusting 24 2.5
2020-Oct-18 12:14 040 18 gusting 24 2.5
2020-Oct-18 12:04 050 17 gusting 22 2.4